Time;durP1;ratioP1;P1;durP2;ratioP2;P2;SDS_P1;SDS_P2;PMS_P1;PMS_P2;Temp;Humidity;BMP_temperature;BMP_pressure;BME280_temperature;BME280_humidity;BME280_pressure;Samples;Min_cycle;Max_cycle;Signal;HPM_P1;HPM_P2
2023/09/18 00:01:28;;;;;;;1.35;1.25;;;;;;;23.09;53.94;93295.50;4844065;29;20382;-92
2023/09/18 00:03:53;;;;;;;1.52;1.42;;;;;;;23.09;53.86;93295.50;4843115;29;20200;-91
2023/09/18 00:06:19;;;;;;;1.88;1.48;;;;;;;23.09;53.89;93281.72;4825707;29;20112;-91
2023/09/18 00:08:45;;;;;;;2.28;1.40;;;;;;;23.09;53.70;93273.44;4835148;29;20493;-91
2023/09/18 00:11:11;;;;;;;1.35;1.25;;;;;;;23.09;53.75;93278.22;4825156;29;20045;-92
2023/09/18 00:13:38;;;;;;;1.17;1.08;;;;;;;23.08;53.84;93277.47;4826750;29;20053;-92
2023/09/18 00:16:04;;;;;;;1.63;1.40;;;;;;;23.08;53.71;93271.22;4833497;29;20136;-92
2023/09/18 00:18:30;;;;;;;1.48;1.38;;;;;;;23.09;53.77;93278.22;4832869;29;20072;-92
2023/09/18 00:21:00;;;;;;;1.40;1.30;;;;;;;23.07;53.85;93272.50;4842104;29;20056;-91
2023/09/18 00:23:25;;;;;;;1.40;1.30;;;;;;;23.08;53.72;93260.19;4831285;29;20057;-91
2023/09/18 00:25:51;;;;;;;1.23;1.13;;;;;;;23.08;53.82;93263.69;4844212;29;20041;-92
2023/09/18 00:28:16;;;;;;;1.20;1.10;;;;;;;23.08;53.63;93265.72;4839785;29;20049;-92
2023/09/18 00:30:48;;;;;;;1.60;1.50;;;;;;;23.08;53.88;93269.22;4833375;29;20173;-92
2023/09/18 00:33:16;;;;;;;1.17;1.08;;;;;;;23.06;53.57;93260.75;4826588;29;20068;-92
2023/09/18 00:35:45;;;;;;;1.33;1.23;;;;;;;23.05;53.78;93262.03;4841746;29;20064;-91
2023/09/18 00:38:13;;;;;;;1.33;1.20;;;;;;;23.07;53.59;93255.97;4821321;29;20052;-93
2023/09/18 00:40:40;;;;;;;2.30;1.23;;;;;;;23.06;53.65;93252.47;4813729;29;20053;-91
2023/09/18 00:43:05;;;;;;;1.45;1.35;;;;;;;23.07;53.75;93248.44;4794430;29;20085;-91
2023/09/18 00:45:31;;;;;;;1.40;1.30;;;;;;;23.05;53.89;93248.22;4797223;29;20042;-91
2023/09/18 00:47:56;;;;;;;1.20;1.10;;;;;;;23.06;53.67;93251.72;4796350;29;20486;-93
2023/09/18 00:50:22;;;;;;;1.20;1.10;;;;;;;23.06;53.75;93235.94;4807082;29;20155;-91
2023/09/18 00:52:47;;;;;;;1.50;1.40;;;;;;;23.06;53.66;93240.69;4797003;29;20034;-91
2023/09/18 00:55:13;;;;;;;1.30;1.20;;;;;;;23.05;53.67;93242.72;4810104;29;20068;-91
2023/09/18 00:57:38;;;;;;;1.30;1.20;;;;;;;23.06;53.84;93237.94;4801748;29;20121;-92
2023/09/18 01:00:05;;;;;;;1.45;1.35;;;;;;;23.06;53.65;93233.16;4787176;29;20482;-91
2023/09/18 01:02:31;;;;;;;1.35;1.25;;;;;;;23.05;53.39;93228.19;4796189;29;20049;-93
2023/09/18 01:05:00;;;;;;;1.42;1.33;;;;;;;23.06;53.73;93232.44;4803057;29;20097;-92
2023/09/18 01:07:25;;;;;;;0.93;0.90;;;;;;;23.05;53.43;93219.94;4776962;29;20054;-92
2023/09/18 01:09:52;;;;;;;1.23;1.13;;;;;;;23.04;53.55;93215.69;4755805;30;20145;-90
2023/09/18 01:12:40;;;;;;;1.42;1.30;;;;;;;23.05;53.67;93211.66;4746564;29;20040;-93
2023/09/18 01:15:13;;;;;;;1.58;1.40;;;;;;;23.04;53.72;93218.44;4740132;29;20100;-92
2023/09/18 01:17:38;;;;;;;1.45;1.35;;;;;;;23.04;53.65;93212.94;4755435;30;20215;-93
2023/09/18 01:20:05;;;;;;;1.42;1.23;;;;;;;23.03;53.74;93216.97;4754468;29;20047;-92
2023/09/18 01:22:31;;;;;;;1.40;1.20;;;;;;;23.02;53.73;93210.72;4755733;30;20039;-91
2023/09/18 01:24:59;;;;;;;1.35;1.17;;;;;;;23.04;53.49;93201.91;4760346;29;20050;-92
2023/09/18 01:27:25;;;;;;;2.10;1.38;;;;;;;23.04;53.58;93208.16;4761371;29;20151;-91
2023/09/18 01:29:50;;;;;;;1.88;1.30;;;;;;;23.03;53.57;93201.16;4774017;29;20155;-91
2023/09/18 01:32:17;;;;;;;1.50;1.20;;;;;;;23.03;53.55;93197.69;4769399;29;20051;-92
2023/09/18 01:34:48;;;;;;;1.98;1.38;;;;;;;23.01;53.51;93189.94;4775226;29;20073;-92
2023/09/18 01:37:20;;;;;;;1.20;1.10;;;;;;;23.01;53.46;93192.72;4778330;29;20606;-92
2023/09/18 01:39:47;;;;;;;2.05;1.60;;;;;;;23.02;53.57;93185.91;4813125;29;20044;-91
2023/09/18 01:42:12;;;;;;;1.50;1.30;;;;;;;23.02;53.67;93194.19;4835130;29;20132;-92
2023/09/18 01:44:38;;;;;;;1.35;1.15;;;;;;;23.02;53.64;93191.44;4809399;29;20152;-92
2023/09/18 01:47:07;;;;;;;1.33;1.23;;;;;;;23.02;53.66;93185.16;4811119;29;20041;-93
2023/09/18 01:49:34;;;;;;;1.95;1.50;;;;;;;23.02;53.68;93190.69;4828661;29;20410;-92
2023/09/18 01:52:00;;;;;;;1.20;1.10;;;;;;;23.01;53.63;93184.44;4801007;29;20037;-92
2023/09/18 01:54:26;;;;;;;1.33;1.20;;;;;;;23.02;53.56;93183.16;4794720;29;20064;-92
2023/09/18 01:56:54;;;;;;;2.10;1.40;;;;;;;23.01;53.58;93184.44;4822917;29;20414;-92
2023/09/18 01:59:20;;;;;;;1.42;1.27;;;;;;;23.01;53.34;93173.41;4776363;29;20416;-91
2023/09/18 02:01:45;;;;;;;1.50;1.40;;;;;;;23.01;53.58;93176.16;4824563;29;20050;-92
2023/09/18 02:04:11;;;;;;;2.78;1.40;;;;;;;23.01;53.64;93167.88;4810476;29;20090;-91
2023/09/18 02:06:42;;;;;;;1.40;1.27;;;;;;;23.01;53.68;93156.13;4810557;29;20038;-91
2023/09/18 02:09:08;;;;;;;1.70;1.60;;;;;;;23.01;53.50;93158.88;4820994;29;20440;-91
2023/09/18 02:11:37;;;;;;;1.70;1.30;;;;;;;23.00;53.59;93155.38;4826561;29;20552;-92
2023/09/18 02:14:05;;;;;;;1.65;1.42;;;;;;;22.99;53.35;93159.44;4825985;29;20057;-92
2023/09/18 02:16:32;;;;;;;1.55;1.35;;;;;;;23.00;53.39;93160.91;4811418;29;20042;-91
2023/09/18 02:18:58;;;;;;;1.85;1.30;;;;;;;23.01;53.44;93154.09;4817847;29;20077;-93
2023/09/18 02:21:23;;;;;;;1.25;1.15;;;;;;;23.00;53.51;93154.66;4825445;29;20045;-92
2023/09/18 02:23:52;;;;;;;1.70;1.50;;;;;;;23.00;53.45;93157.41;4841068;29;20132;-92
2023/09/18 02:26:18;;;;;;;1.60;1.40;;;;;;;23.00;53.33;93162.94;4810957;29;20054;-91
2023/09/18 02:28:44;;;;;;;1.58;1.38;;;;;;;23.00;53.58;93140.88;4821832;29;20040;-93
2023/09/18 02:31:09;;;;;;;1.55;1.35;;;;;;;22.98;53.70;93138.66;4809376;29;20045;-92
2023/09/18 02:33:35;;;;;;;1.48;1.38;;;;;;;23.00;53.44;93146.38;4812272;29;20041;-92
2023/09/18 02:36:01;;;;;;;1.88;1.75;;;;;;;23.00;53.46;93149.13;4804586;29;20386;-91
2023/09/18 02:38:29;;;;;;;1.52;1.42;;;;;;;22.99;53.46;93151.16;4824908;29;20492;-91
2023/09/18 02:40:56;;;;;;;1.73;1.63;;;;;;;22.99;53.40;93148.41;4856759;29;20045;-91
2023/09/18 02:43:23;;;;;;;1.70;1.55;;;;;;;22.99;53.47;93147.66;4848079;29;20041;-92
2023/09/18 02:45:49;;;;;;;1.90;1.60;;;;;;;22.97;53.50;93148.22;4848920;29;20071;-92
2023/09/18 02:48:19;;;;;;;1.98;1.55;;;;;;;22.98;53.52;93141.41;4846029;29;20124;-92
2023/09/18 02:50:46;;;;;;;1.20;1.10;;;;;;;22.98;53.44;93141.41;4839897;29;20391;-93
2023/09/18 02:53:20;;;;;;;1.45;1.25;;;;;;;22.97;53.39;93142.69;4829752;29;20120;-92
2023/09/18 02:55:47;;;;;;;1.25;1.15;;;;;;;22.98;53.48;93137.91;4832117;29;21080;-92
2023/09/18 02:58:12;;;;;;;1.50;1.40;;;;;;;22.97;53.44;93134.44;4844614;29;20044;-92
2023/09/18 03:00:43;;;;;;;1.98;1.40;;;;;;;22.98;53.25;93135.16;4838975;29;20111;-92
2023/09/18 03:03:08;;;;;;;1.80;1.45;;;;;;;22.97;53.29;93128.19;4843747;29;20116;-92
2023/09/18 03:05:36;;;;;;;1.50;1.35;;;;;;;22.96;53.52;93132.94;4844629;29;20085;-91
2023/09/18 03:08:02;;;;;;;1.33;1.23;;;;;;;22.97;53.49;93130.94;4826001;29;20041;-92
2023/09/18 03:10:28;;;;;;;1.30;1.20;;;;;;;22.98;53.42;93124.88;4841699;29;20079;-91
2023/09/18 03:12:55;;;;;;;1.55;1.40;;;;;;;22.96;53.39;93121.94;4840797;29;20096;-92
2023/09/18 03:15:21;;;;;;;1.15;1.05;;;;;;;22.97;53.54;93117.16;4844695;29;20061;-91
2023/09/18 03:17:47;;;;;;;1.40;1.30;;;;;;;22.96;53.33;93107.41;4829821;29;20496;-91
2023/09/18 03:20:12;;;;;;;1.40;1.30;;;;;;;22.96;53.32;93116.41;4839118;29;20048;-92
2023/09/18 03:22:38;;;;;;;1.55;1.45;;;;;;;22.98;53.01;93110.34;4838952;29;20097;-92
2023/09/18 03:25:03;;;;;;;1.58;1.30;;;;;;;23.01;53.07;93118.28;4837349;29;20048;-92
2023/09/18 03:27:31;;;;;;;2.08;1.30;;;;;;;22.98;53.17;93108.34;4805645;29;20041;-92
2023/09/18 03:29:57;;;;;;;3.88;2.80;;;;;;;23.10;52.25;93103.22;4841558;29;20072;-92
2023/09/18 03:32:22;;;;;;;9.70;5.18;;;;;;;23.13;52.01;93104.88;4835316;29;20080;-93
2023/09/18 03:34:51;;;;;;;8.77;5.35;;;;;;;23.10;51.47;93106.72;4870390;29;20036;-92
2023/09/18 03:37:16;;;;;;;57.92;40.97;;;;;;;23.11;51.05;93102.69;4845467;29;20145;-92
2023/09/18 03:39:41;;;;;;;106.65;49.15;;;;;;;23.12;51.36;93109.66;4850950;29;20036;-92
2023/09/18 03:42:07;;;;;;;147.55;67.40;;;;;;;23.09;51.10;93099.00;4854634;29;20045;-91
2023/09/18 03:44:32;;;;;;;70.28;46.72;;;;;;;23.04;51.11;93092.38;4847822;29;20051;-92
2023/09/18 03:46:58;;;;;;;22.40;17.58;;;;;;;23.02;51.17;93091.44;4841444;29;20041;-89
2023/09/18 03:49:24;;;;;;;76.60;47.50;;;;;;;22.94;51.16;93082.44;4853728;29;20072;-92
2023/09/18 03:51:51;;;;;;;17.38;14.18;;;;;;;22.93;50.80;93084.44;4831616;29;20193;-93
2023/09/18 03:54:34;;;;;;;28.02;18.58;;;;;;;22.78;51.22;93078.88;4976973;24;20488;-94
2023/09/18 04:08:28;;;;;;;170.40;25.05;;;;;;;22.47;49.82;93086.31;4873479;29;20056;-94
2023/09/18 04:10:55;;;;;;;139.85;19.33;;;;;;;22.50;49.23;93088.72;4792323;29;20049;-92
2023/09/18 04:13:26;;;;;;;85.47;14.20;;;;;;;22.36;49.06;93075.59;4852265;29;20048;-94
2023/09/18 04:15:56;;;;;;;;;;;;;;;22.29;49.57;93079.81;4834515;29;20049;-92
2023/09/18 04:18:22;;;;;;;43.63;7.90;;;;;;;22.32;49.15;93070.44;4830114;29;19952;-92
2023/09/18 04:20:52;;;;;;;41.42;13.30;;;;;;;22.19;49.20;93063.06;4829545;29;20444;-93
2023/09/18 04:23:38;;;;;;;24.87;8.20;;;;;;;22.02;49.63;93056.56;4812295;23;20070;-94
2023/09/18 04:26:09;;;;;;;39.35;10.70;;;;;;;22.00;49.50;93059.84;4787307;29;20283;-93
2023/09/18 04:28:34;;;;;;;16.88;6.75;;;;;;;21.91;49.51;93063.06;4765558;29;20103;-93
2023/09/18 04:31:00;;;;;;;18.77;6.93;;;;;;;22.01;49.19;93061.34;4725783;30;20040;-93
2023/09/18 04:33:25;;;;;;;21.45;7.50;;;;;;;21.86;49.47;93050.97;4712257;30;20068;-93
2023/09/18 04:35:51;;;;;;;21.40;8.52;;;;;;;21.92;49.40;93050.78;4743773;30;20058;-93
2023/09/18 04:38:19;;;;;;;55.80;23.45;;;;;;;21.83;49.67;93048.56;4735260;30;20084;-93
2023/09/18 04:40:49;;;;;;;18.05;9.40;;;;;;;21.87;49.33;93048.91;4749501;30;20461;-93
2023/09/18 04:43:15;;;;;;;17.45;6.95;;;;;;;21.80;49.79;93044.13;4737449;30;20047;-93
2023/09/18 04:45:43;;;;;;;15.00;8.77;;;;;;;21.78;49.34;93039.16;4772127;30;20050;-92
2023/09/18 04:48:08;;;;;;;16.88;10.30;;;;;;;21.89;49.47;93035.34;4717626;30;20060;-94
2023/09/18 04:50:39;;;;;;;52.25;11.68;;;;;;;21.86;49.23;93030.97;4724018;30;20549;-94
2023/09/18 04:53:08;;;;;;;53.13;11.88;;;;;;;21.81;49.32;93029.09;4727876;30;20040;-93
2023/09/18 04:55:34;;;;;;;16.85;5.45;;;;;;;21.72;49.37;93032.34;4722635;30;20040;-92
2023/09/18 04:57:59;;;;;;;20.30;6.07;;;;;;;21.74;49.63;93027.03;4753827;30;20050;-93
2023/09/18 05:00:26;;;;;;;26.65;7.72;;;;;;;21.77;49.61;93029.44;4776675;29;20533;-94
2023/09/18 05:02:52;;;;;;;14.90;8.82;;;;;;;21.75;49.53;93020.97;4795758;29;20049;-93
2023/09/18 05:05:20;;;;;;;14.48;9.88;;;;;;;21.71;49.49;93012.34;4806026;29;20050;-94
2023/09/18 05:07:53;;;;;;;23.55;12.88;;;;;;;21.71;49.68;93026.09;4805376;29;20046;-94
2023/09/18 05:10:21;;;;;;;27.92;13.30;;;;;;;21.70;49.62;93021.13;4778072;29;20046;-93
2023/09/18 05:12:49;;;;;;;35.65;17.92;;;;;;;21.69;49.77;93017.63;4779398;29;20050;-94
2023/09/18 05:15:15;;;;;;;16.23;9.55;;;;;;;21.80;49.32;93011.84;4774038;29;20124;-92
2023/09/18 05:17:46;;;;;;;24.80;10.98;;;;;;;21.64;49.86;93018.56;4775431;29;20386;-94
2023/09/18 05:20:16;;;;;;;28.13;14.13;;;;;;;21.57;50.38;93021.25;4796630;29;20038;-92
2023/09/18 05:22:42;;;;;;;34.28;15.95;;;;;;;21.49;50.48;93019.19;4791928;29;20042;-93
2023/09/18 05:25:15;;;;;;;141.98;80.10;;;;;;;21.61;50.22;93019.63;4780362;29;20075;-94
2023/09/18 05:27:44;;;;;;;83.63;51.70;;;;;;;21.62;50.24;93018.34;4782490;29;20055;-94
2023/09/18 05:30:17;;;;;;;82.22;39.80;;;;;;;21.59;50.49;93018.69;4770815;29;20133;-92
2023/09/18 05:32:53;;;;;;;114.18;53.88;;;;;;;21.60;50.48;93012.66;4780299;29;20066;-94
2023/09/18 05:35:19;;;;;;;104.88;45.60;;;;;;;21.58;50.66;93003.47;4766035;29;20055;-92
2023/09/18 05:37:45;;;;;;;67.90;32.17;;;;;;;21.60;50.57;93009.16;4770669;29;20048;-92
2023/09/18 05:40:12;;;;;;;53.90;26.73;;;;;;;21.63;50.50;93006.06;4769802;29;20538;-93
2023/09/18 05:42:38;;;;;;;48.53;26.20;;;;;;;21.62;50.40;92995.59;4774805;29;20047;-92
2023/09/18 05:45:04;;;;;;;39.08;18.08;;;;;;;21.54;50.58;92990.78;4772376;29;20050;-92
2023/09/18 05:47:34;;;;;;;40.40;14.98;;;;;;;21.67;50.23;92986.44;4773584;29;20401;-92
2023/09/18 05:50:00;;;;;;;24.40;11.88;;;;;;;21.67;50.57;92983.69;4786387;29;20051;-91
2023/09/18 05:52:26;;;;;;;26.27;10.40;;;;;;;21.69;50.73;92987.38;4770313;29;20084;-91
2023/09/18 05:54:51;;;;;;;30.88;12.88;;;;;;;21.74;50.37;92994.00;4770632;29;20095;-91
2023/09/18 05:57:17;;;;;;;33.08;12.65;;;;;;;21.75;50.27;92995.47;4794359;29;20057;-92
2023/09/18 05:59:46;;;;;;;44.70;18.00;;;;;;;21.81;50.07;92987.81;4812048;29;20593;-92
2023/09/18 06:02:13;;;;;;;26.10;13.88;;;;;;;21.80;50.27;93000.84;4800746;29;20526;-93
2023/09/18 06:04:39;;;;;;;25.90;14.10;;;;;;;21.81;49.89;93001.56;4824002;29;20107;-93
2023/09/18 06:07:08;;;;;;;28.75;14.50;;;;;;;21.79;50.05;92996.63;4777063;29;20102;-94
2023/09/18 06:09:33;;;;;;;25.55;15.13;;;;;;;21.79;50.58;92988.38;4777779;29;20058;-91
2023/09/18 06:12:00;;;;;;;18.17;10.70;;;;;;;21.82;50.66;92992.78;4782045;29;20075;-93
2023/09/18 06:14:25;;;;;;;21.98;10.90;;;;;;;21.76;51.07;92986.69;4784585;29;20179;-91
2023/09/18 06:16:54;;;;;;;22.75;9.52;;;;;;;21.82;50.51;93001.03;4791027;29;20046;-94
2023/09/18 06:19:19;;;;;;;21.02;11.05;;;;;;;21.86;50.26;92995.19;4782279;29;20046;-93
2023/09/18 06:21:54;;;;;;;24.48;15.30;;;;;;;21.89;50.46;92991.31;4815961;29;20047;-95
2023/09/18 06:24:21;;;;;;;17.70;14.05;;;;;;;21.96;50.56;92987.13;4792792;23;20054;-92
2023/09/18 06:26:47;;;;;;;9.38;5.15;;;;;;;22.04;51.63;92985.19;4817534;29;20037;-92
2023/09/18 06:29:20;;;;;;;8.15;4.43;;;;;;;21.97;52.56;92992.09;4780223;29;20132;-93
2023/09/18 06:32:07;;;;;;;4.82;4.18;;;;;;;21.90;52.74;92985.28;4813096;29;20566;-92
2023/09/18 06:34:35;;;;;;;10.65;5.10;;;;;;;22.03;52.34;92973.44;4821606;29;20050;-92
2023/09/18 06:37:06;;;;;;;27.42;7.72;;;;;;;22.02;51.87;92977.47;4837370;29;20076;-93
2023/09/18 06:39:43;;;;;;;59.10;13.00;;;;;;;22.04;51.51;92974.91;4806102;29;20042;-93
2023/09/18 06:42:11;;;;;;;35.85;9.70;;;;;;;22.12;51.79;92978.41;4786769;29;20034;-92
2023/09/18 06:44:37;;;;;;;29.75;11.35;;;;;;;22.18;51.59;92970.72;4825571;29;20102;-91
2023/09/18 06:47:18;;;;;;;35.83;12.07;;;;;;;22.15;52.80;92971.81;4787629;29;20039;-91
2023/09/18 06:49:55;;;;;;;19.10;6.78;;;;;;;22.15;52.36;92971.81;4743087;30;20076;-92
2023/09/18 06:52:22;;;;;;;70.30;14.35;;;;;;;22.20;52.56;92970.19;4723489;30;20082;-94
2023/09/18 06:54:52;;;;;;;89.85;35.33;;;;;;;22.20;51.53;92970.94;4722630;30;20055;-93
2023/09/18 06:57:21;;;;;;;159.13;59.70;;;;;;;22.20;51.16;92965.41;4743961;30;20062;-94
2023/09/18 07:00:07;;;;;;;55.15;19.35;;;;;;;22.17;51.39;92963.75;4727802;30;20056;-93
2023/09/18 07:04:19;;;;;;;70.03;15.43;;;;;;;22.20;51.46;92970.94;4705360;30;20067;-92
2023/09/18 07:09:13;;;;;;;16.20;7.78;;;;;;;22.24;51.44;92959.56;4691446;30;20503;-92
2023/09/18 07:11:41;;;;;;;23.17;9.52;;;;;;;22.28;51.17;92964.72;4689435;30;20120;-93
2023/09/18 07:14:07;;;;;;;17.02;7.68;;;;;;;22.31;50.49;92958.81;4791097;24;20056;-92
2023/09/18 07:16:33;;;;;;;196.70;104.55;;;;;;;22.30;50.72;92962.16;4833391;29;20054;-93
2023/09/18 07:18:59;;;;;;;168.57;77.30;;;;;;;22.33;50.36;92959.00;4813559;29;20087;-92
2023/09/18 07:21:26;;;;;;;90.75;40.03;;;;;;;22.39;50.12;92959.59;4803881;29;20101;-91
2023/09/18 07:23:53;;;;;;;106.35;25.38;;;;;;;22.36;50.37;92957.91;4775551;29;20051;-91
2023/09/18 07:26:20;;;;;;;71.60;17.13;;;;;;;22.40;50.00;92952.78;4816902;29;20042;-94
2023/09/18 07:28:51;;;;;;;30.80;11.38;;;;;;;22.44;50.02;92949.69;4816575;29;20076;-91
2023/09/18 07:31:17;;;;;;;39.28;10.63;;;;;;;22.41;50.02;92959.03;4818944;29;20038;-92
2023/09/18 07:33:44;;;;;;;21.02;7.45;;;;;;;22.42;50.71;92953.00;4759557;30;20132;-89
2023/09/18 07:36:11;;;;;;;12.20;6.47;;;;;;;22.41;50.53;92951.50;4751578;30;20092;-92
2023/09/18 07:38:38;;;;;;;14.10;5.68;;;;;;;22.46;50.67;92952.63;4748465;30;20057;-90
2023/09/18 07:41:08;;;;;;;13.02;8.60;;;;;;;22.49;50.64;92940.50;4734185;30;20071;-93
2023/09/18 07:43:42;;;;;;;21.05;8.48;;;;;;;22.46;50.89;92939.59;4744054;30;20180;-93
2023/09/18 07:46:08;;;;;;;20.73;10.50;;;;;;;22.51;51.23;92941.44;4748195;30;20052;-92
2023/09/18 07:48:34;;;;;;;57.08;20.40;;;;;;;22.48;51.45;92948.03;4743383;30;20113;-91
2023/09/18 07:51:11;;;;;;;18.65;10.27;;;;;;;22.51;51.55;92960.72;4721383;30;20118;-91
2023/09/18 07:53:37;;;;;;;18.30;9.25;;;;;;;22.54;51.64;92956.84;4726776;30;20045;-92
2023/09/18 07:56:04;;;;;;;20.33;8.45;;;;;;;22.56;51.75;92957.03;4731275;30;20044;-92
2023/09/18 07:58:30;;;;;;;19.48;8.18;;;;;;;22.67;51.39;92963.50;4727795;30;20626;-92
2023/09/18 08:00:57;;;;;;;14.85;8.43;;;;;;;22.62;51.54;92956.88;4733320;30;20047;-92
2023/09/18 08:03:29;;;;;;;20.92;8.70;;;;;;;22.65;51.58;92955.78;4734828;30;20065;-93
2023/09/18 08:06:33;;;;;;;24.42;8.98;;;;;;;22.67;51.64;92947.69;4776702;29;20087;-93
2023/09/18 08:11:53;;;;;;;34.63;10.27;;;;;;;22.76;51.63;92943.63;4892221;23;20050;-93
2023/09/18 08:14:18;;;;;;;33.67;10.30;;;;;;;22.83;51.22;92951.22;4879592;29;20073;-93
2023/09/18 08:22:31;;;;;;;19.73;9.55;;;;;;;22.94;51.06;92939.84;4752882;30;20459;-94
2023/09/18 08:25:17;;;;;;;15.95;7.25;;;;;;;22.99;51.00;92940.91;4733656;30;20047;-95
2023/09/18 08:27:43;;;;;;;31.63;8.38;;;;;;;23.00;50.72;92945.13;4748868;30;20048;-92
2023/09/18 08:30:32;;;;;;;32.90;9.13;;;;;;;23.03;50.83;92964.06;4721562;30;20048;-94
2023/09/18 08:32:57;;;;;;;35.92;10.85;;;;;;;23.10;50.65;92952.31;4698530;30;20052;-93
2023/09/18 08:35:27;;;;;;;25.05;13.05;;;;;;;23.03;50.91;92950.28;4720562;30;20406;-92
2023/09/18 08:37:53;;;;;;;60.20;13.48;;;;;;;22.98;50.98;92953.22;4705855;30;20533;-93
2023/09/18 08:40:47;;;;;;;36.47;10.45;;;;;;;22.94;51.18;92959.13;4705678;30;20041;-91
2023/09/18 08:43:23;;;;;;;23.20;8.63;;;;;;;23.01;51.02;92963.88;4715086;30;20114;-95
2023/09/18 08:45:57;;;;;;;25.67;6.85;;;;;;;23.05;51.18;92961.50;4697219;30;20044;-94
2023/09/18 08:48:36;;;;;;;;;;;;;;;;;;;;;
2023/09/18 08:51:05;;;;;;;18.60;5.55;;;;;;;23.01;51.44;92950.09;4731862;30;20055;-91
2023/09/18 08:53:32;;;;;;;25.40;6.82;;;;;;;22.96;51.51;92942.75;4748496;30;20071;-93
2023/09/18 08:56:06;;;;;;;13.18;5.50;;;;;;;23.03;51.32;92938.53;4752905;30;20054;-93
2023/09/18 08:58:49;;;;;;;;;;;;;;;;;;;;;
2023/09/18 09:01:19;;;;;;;13.60;4.35;;;;;;;23.03;50.63;92930.25;4764778;29;20052;-92
2023/09/18 09:03:45;;;;;;;13.25;4.88;;;;;;;23.01;50.73;92930.06;4857329;29;20052;-92
2023/09/18 09:06:15;;;;;;;26.90;8.50;;;;;;;22.99;50.81;92932.63;4846252;29;20052;-92
2023/09/18 09:08:41;;;;;;;38.50;14.23;;;;;;;23.11;50.32;92928.97;4851797;29;20056;-92
2023/09/18 09:11:07;;;;;;;29.67;13.82;;;;;;;23.05;50.54;92927.69;4853362;29;20545;-92
2023/09/18 09:13:35;;;;;;;74.35;16.80;;;;;;;23.07;50.71;92928.59;4849906;29;20055;-95
2023/09/18 09:16:00;;;;;;;47.53;11.65;;;;;;;23.04;50.61;92923.44;4849177;29;20131;-93
2023/09/18 09:18:29;;;;;;;44.65;11.80;;;;;;;23.06;50.83;92929.16;4834718;29;20079;-94
2023/09/18 09:21:04;;;;;;;26.92;9.68;;;;;;;23.05;50.77;92919.41;4867452;29;20048;-93
2023/09/18 09:23:44;;;;;;;26.55;8.43;;;;;;;23.10;50.21;92916.47;4866312;29;20055;-93
2023/09/18 09:26:14;;;;;;;23.35;8.95;;;;;;;23.07;50.01;92922.34;4850349;29;20049;-92
2023/09/18 09:28:43;;;;;;;11.82;6.75;;;;;;;23.17;49.46;92912.22;4851973;29;20516;-91
2023/09/18 09:31:10;;;;;;;19.02;7.30;;;;;;;23.15;49.50;92909.31;4849693;29;20033;-94
2023/09/18 09:33:36;;;;;;;10.52;6.25;;;;;;;23.22;49.22;92919.56;4862709;29;20045;-94
2023/09/18 09:36:33;;;;;;;18.38;6.00;;;;;;;23.14;49.43;92907.84;4846233;29;20053;-93
2023/09/18 09:38:59;;;;;;;12.85;5.30;;;;;;;23.24;48.55;92909.44;4863229;29;20045;-93
2023/09/18 09:41:27;;;;;;;7.47;4.30;;;;;;;23.29;48.68;92909.81;4851594;29;20104;-93
2023/09/18 09:43:56;;;;;;;16.55;5.65;;;;;;;23.29;48.67;92904.31;4867439;29;20766;-93
2023/09/18 09:46:25;;;;;;;16.25;7.32;;;;;;;23.33;48.36;92899.16;4855145;29;20049;-94
2023/09/18 09:54:04;;;;;;;26.33;7.32;;;;;;;23.37;48.73;92894.00;4546151;23;20421;-94
2023/09/18 09:57:04;;;;;;;33.78;12.88;;;;;;;23.32;48.19;92898.41;4821938;29;20040;-93
2023/09/18 09:59:33;;;;;;;32.00;15.45;;;;;;;23.38;48.54;92887.91;4868953;29;20390;-93
2023/09/18 10:02:01;;;;;;;48.97;19.63;;;;;;;23.32;48.41;92892.91;4850105;29;20040;-93
2023/09/18 10:04:28;;;;;;;35.90;17.73;;;;;;;23.35;48.74;92893.81;4851513;29;20055;-92
2023/09/18 10:06:59;;;;;;;29.48;14.98;;;;;;;23.34;48.47;92879.28;4850965;29;20076;-90
2023/09/18 10:09:25;;;;;;;21.30;8.70;;;;;;;23.43;48.48;92889.00;4885717;29;20146;-92
2023/09/18 10:11:52;;;;;;;14.85;7.05;;;;;;;23.38;48.41;92887.91;4867701;29;20048;-92
2023/09/18 10:14:29;;;;;;;13.10;6.68;;;;;;;23.37;48.41;92886.44;4865876;29;20040;-92
2023/09/18 10:16:55;;;;;;;9.13;4.88;;;;;;;23.43;48.59;92875.19;4858678;29;20041;-92
2023/09/18 10:19:40;;;;;;;7.50;4.32;;;;;;;23.47;48.62;92879.03;4880352;29;20080;-94
2023/09/18 10:22:11;;;;;;;9.85;4.45;;;;;;;23.48;48.61;92866.00;4898956;29;20037;-92
2023/09/18 10:24:37;;;;;;;5.03;3.40;;;;;;;23.51;48.37;92862.13;4872718;29;20055;-92
2023/09/18 10:27:03;;;;;;;5.28;3.65;;;;;;;23.48;48.61;92868.75;4856215;29;20558;-93
2023/09/18 10:29:30;;;;;;;5.68;3.60;;;;;;;23.48;48.15;92869.47;4878927;29;20055;-92
2023/09/18 10:31:55;;;;;;;8.35;3.58;;;;;;;23.57;48.01;92863.41;4879791;29;20492;-92
2023/09/18 10:34:30;;;;;;;7.53;3.50;;;;;;;23.51;48.09;92862.84;4855761;29;20067;-92
2023/09/18 10:36:57;;;;;;;3.83;3.20;;;;;;;23.52;47.74;92856.06;4868069;29;20052;-92
2023/09/18 10:39:26;;;;;;;3.90;3.30;;;;;;;23.54;47.65;92863.78;4877381;29;20071;-93
2023/09/18 10:41:53;;;;;;;4.50;2.95;;;;;;;23.56;47.23;92852.94;4849819;29;20033;-91
2023/09/18 10:44:18;;;;;;;6.45;2.95;;;;;;;23.60;47.26;92858.06;4847869;29;20087;-92
2023/09/18 10:46:45;;;;;;;3.78;2.95;;;;;;;23.64;47.24;92863.94;4850032;29;20320;-93
2023/09/18 10:49:11;;;;;;;4.20;2.50;;;;;;;23.64;47.00;92863.94;4867285;29;20686;-93
2023/09/18 10:51:42;;;;;;;7.70;5.75;;;;;;;23.64;47.18;92858.41;4874988;29;20060;-93
2023/09/18 10:54:08;;;;;;;7.30;4.70;;;;;;;23.63;47.06;92854.91;4869530;29;20048;-92
2023/09/18 10:56:34;;;;;;;13.95;9.05;;;;;;;23.68;47.17;92859.50;4846291;29;20052;-92
2023/09/18 10:59:00;;;;;;;23.52;10.25;;;;;;;23.63;47.04;92870.72;4856363;29;20558;-92
2023/09/18 11:01:27;;;;;;;39.30;12.68;;;;;;;23.70;47.29;92864.47;4840153;29;20162;-93
2023/09/18 11:03:53;;;;;;;38.25;13.27;;;;;;;23.68;47.17;92869.81;4833179;29;20045;-92
2023/09/18 11:06:21;;;;;;;26.10;8.25;;;;;;;23.66;47.39;92875.13;4838041;29;20551;-94
2023/09/18 11:08:48;;;;;;;20.42;8.25;;;;;;;23.72;47.33;92865.38;4810461;29;20300;-93
2023/09/18 11:11:19;;;;;;;21.13;8.13;;;;;;;23.72;47.13;92867.41;4819616;29;20062;-93
2023/09/18 11:13:45;;;;;;;35.60;18.42;;;;;;;23.78;46.88;92867.94;4831960;29;20311;-93
2023/09/18 11:16:18;;;;;;;38.80;18.80;;;;;;;23.77;46.86;92858.91;4822938;29;20049;-93
2023/09/18 11:18:48;;;;;;;56.45;19.23;;;;;;;23.79;46.89;92863.88;4858051;29;20131;-93
2023/09/18 11:21:14;;;;;;;61.57;27.97;;;;;;;23.83;46.89;92864.94;4841151;29;20053;-93
2023/09/18 11:23:42;;;;;;;77.68;31.45;;;;;;;23.86;47.10;92861.06;4826052;29;20050;-94
2023/09/18 11:26:08;;;;;;;69.80;38.88;;;;;;;23.80;47.34;92863.31;4836072;29;20094;-93
2023/09/18 11:28:34;;;;;;;87.68;46.97;;;;;;;23.84;47.31;92855.34;4833959;29;20041;-93
2023/09/18 11:31:01;;;;;;;110.30;58.60;;;;;;;23.85;47.50;92861.63;4811988;29;20567;-93
2023/09/18 11:33:40;;;;;;;127.88;64.18;;;;;;;23.83;47.58;92859.41;4840419;29;20047;-93
2023/09/18 11:36:14;;;;;;;124.13;64.83;;;;;;;23.84;47.91;92857.38;4852570;29;20044;-93
2023/09/18 11:39:03;;;;;;;116.65;58.08;;;;;;;23.89;48.38;92856.44;4843903;29;20052;-93
2023/09/18 11:41:29;;;;;;;94.03;50.40;;;;;;;23.88;49.10;92863.25;4858843;29;20097;-92
2023/09/18 11:44:13;;;;;;;75.72;37.08;;;;;;;23.91;49.68;92862.88;4847924;29;20134;-92
2023/09/18 11:46:39;;;;;;;70.22;32.13;;;;;;;23.92;50.33;92860.84;4889660;29;20079;-92
2023/09/18 11:49:10;;;;;;;62.03;29.80;;;;;;;23.92;50.42;92867.09;4849837;29;20050;-93
2023/09/18 11:51:36;;;;;;;41.78;19.80;;;;;;;23.99;52.19;92873.88;4862993;29;20071;-92
2023/09/18 11:54:02;;;;;;;40.60;17.73;;;;;;;23.94;52.50;92863.78;4846923;29;20032;-92
2023/09/18 11:56:29;;;;;;;24.65;11.95;;;;;;;23.98;54.56;92860.66;4846689;29;20033;-93
2023/09/18 11:58:55;;;;;;;20.45;11.23;;;;;;;23.95;55.23;92864.53;4846697;29;20041;-93
2023/09/18 12:01:22;;;;;;;21.02;9.70;;;;;;;23.98;55.73;92863.41;4841352;29;20067;-94
2023/09/18 12:03:53;;;;;;;18.80;8.85;;;;;;;23.84;56.09;92873.94;4841576;29;20390;-92